createdAt,value
2022-10-17T00:00:11.428Z,1009.50
2022-10-17T00:00:32.501Z,1009.52
2022-10-17T00:00:53.546Z,1009.50
2022-10-17T00:01:14.720Z,1009.54
2022-10-17T00:01:35.822Z,1009.56
2022-10-17T00:01:56.844Z,1009.54
2022-10-17T00:02:17.911Z,1009.52
2022-10-17T00:02:38.962Z,1009.52
2022-10-17T00:03:00.007Z,1009.54
2022-10-17T00:03:21.070Z,1009.54
2022-10-17T00:03:42.138Z,1009.56
2022-10-17T00:04:03.188Z,1009.56
2022-10-17T00:04:24.314Z,1009.54
2022-10-17T00:04:45.410Z,1009.56
2022-10-17T00:05:06.506Z,1009.56
2022-10-17T00:05:27.533Z,1009.58
2022-10-17T00:05:48.615Z,1009.56
2022-10-17T00:06:09.638Z,1009.58
2022-10-17T00:06:30.689Z,1009.54
2022-10-17T00:06:51.764Z,1009.56
2022-10-17T00:07:12.807Z,1009.56
2022-10-17T00:07:33.864Z,1009.56
2022-10-17T00:07:54.934Z,1009.58
2022-10-17T00:08:15.965Z,1009.60
2022-10-17T00:08:37.013Z,1009.60
2022-10-17T00:08:58.073Z,1009.60
2022-10-17T00:09:19.115Z,1009.58
2022-10-17T00:09:40.195Z,1009.58
2022-10-17T00:10:01.238Z,1009.56
2022-10-17T00:10:22.315Z,1009.58
2022-10-17T00:10:43.352Z,1009.58
2022-10-17T00:11:04.408Z,1009.58
2022-10-17T00:11:25.451Z,1009.62
2022-10-17T00:11:46.526Z,1009.60
2022-10-17T00:12:07.708Z,1009.62
2022-10-17T00:12:28.753Z,1009.64
2022-10-17T00:12:49.807Z,1009.64
2022-10-17T00:13:10.866Z,1009.66
2022-10-17T00:13:52.954Z,1009.64
2022-10-17T00:14:14.014Z,1009.66
2022-10-17T00:14:35.066Z,1009.62
2022-10-17T00:14:56.145Z,1009.62
2022-10-17T00:15:17.192Z,1009.62
2022-10-17T00:15:38.267Z,1009.62
2022-10-17T00:15:59.313Z,1009.64
2022-10-17T00:16:20.370Z,1009.68
2022-10-17T00:16:41.460Z,1009.68
2022-10-17T00:17:02.477Z,1009.70
2022-10-17T00:17:23.547Z,1009.68
2022-10-17T00:17:44.599Z,1009.68
2022-10-17T00:18:05.641Z,1009.70
2022-10-17T00:18:26.734Z,1009.70
2022-10-17T00:18:47.795Z,1009.70
2022-10-17T00:19:08.858Z,1009.72
2022-10-17T00:19:29.936Z,1009.72
2022-10-17T00:19:51.005Z,1009.72
2022-10-17T00:20:12.058Z,1009.72
2022-10-17T00:20:33.118Z,1009.72
2022-10-17T00:20:54.181Z,1009.72
2022-10-17T00:21:15.228Z,1009.72
2022-10-17T00:21:36.297Z,1009.74
2022-10-17T00:21:57.351Z,1009.66
2022-10-17T00:22:18.395Z,1009.68
2022-10-17T00:22:39.490Z,1009.66
2022-10-17T00:23:00.531Z,1009.66
2022-10-17T00:23:21.579Z,1009.66
2022-10-17T00:23:42.631Z,1009.66
2022-10-17T00:24:03.687Z,1009.68
2022-10-17T00:24:24.730Z,1009.66
2022-10-17T00:24:45.816Z,1009.66
2022-10-17T00:25:06.885Z,1009.66
2022-10-17T00:25:27.949Z,1009.66
2022-10-17T00:25:49.002Z,1009.68
2022-10-17T00:26:10.058Z,1009.70
2022-10-17T00:26:31.107Z,1009.70
2022-10-17T00:26:52.180Z,1009.68
2022-10-17T00:27:13.223Z,1009.70
2022-10-17T00:27:34.299Z,1009.66
2022-10-17T00:27:55.322Z,1009.70
2022-10-17T00:28:16.376Z,1009.70
2022-10-17T00:28:37.456Z,1009.70
2022-10-17T00:28:58.540Z,1009.72
2022-10-17T00:29:19.573Z,1009.70
2022-10-17T00:29:40.645Z,1009.70
2022-10-17T00:30:01.699Z,1009.70
2022-10-17T00:30:22.741Z,1009.74
2022-10-17T00:30:43.828Z,1009.74
2022-10-17T00:31:04.870Z,1009.72
2022-10-17T00:31:25.960Z,1009.70
2022-10-17T00:31:47.108Z,1009.72
2022-10-17T00:32:08.344Z,1009.72
2022-10-17T00:32:29.826Z,1009.74
2022-10-17T00:32:51.344Z,1009.72
2022-10-17T00:33:12.410Z,1009.72
2022-10-17T00:33:33.449Z,1009.74
2022-10-17T00:33:54.497Z,1009.72
2022-10-17T00:34:15.575Z,1009.70
2022-10-17T00:34:36.613Z,1009.70
2022-10-17T00:34:57.666Z,1009.74
2022-10-17T00:35:18.718Z,1009.72
2022-10-17T00:35:39.799Z,1009.76
2022-10-17T00:36:00.844Z,1009.76
2022-10-17T00:36:21.897Z,1009.74
2022-10-17T00:36:42.955Z,1009.74
2022-10-17T00:37:04.013Z,1009.74
2022-10-17T00:37:25.196Z,1009.72
2022-10-17T00:37:46.279Z,1009.72
2022-10-17T00:38:07.359Z,1009.74
2022-10-17T00:38:28.420Z,1009.72
2022-10-17T00:38:49.465Z,1009.70
2022-10-17T00:39:10.557Z,1009.68
2022-10-17T00:39:31.614Z,1009.70
2022-10-17T00:39:52.670Z,1009.72
2022-10-17T00:40:13.725Z,1009.72
2022-10-17T00:40:34.781Z,1009.72
2022-10-17T00:41:16.851Z,1009.72
2022-10-17T00:41:37.910Z,1009.70
2022-10-17T00:41:58.959Z,1009.72
2022-10-17T00:42:20.013Z,1009.68
2022-10-17T00:42:41.187Z,1009.72
2022-10-17T00:43:02.272Z,1009.66
2022-10-17T00:43:23.357Z,1009.68
2022-10-17T00:43:44.417Z,1009.68
2022-10-17T00:44:05.448Z,1009.68
2022-10-17T00:44:26.496Z,1009.66
2022-10-17T00:44:47.571Z,1009.66
2022-10-17T00:45:08.607Z,1009.66
2022-10-17T00:45:29.665Z,1009.66
2022-10-17T00:45:50.745Z,1009.66
2022-10-17T00:46:11.800Z,1009.66
2022-10-17T00:46:32.849Z,1009.66
2022-10-17T00:46:53.898Z,1009.66
2022-10-17T00:47:14.951Z,1009.64
2022-10-17T00:47:36.009Z,1009.66
2022-10-17T00:47:57.213Z,1009.66
2022-10-17T00:48:22.489Z,1009.66
2022-10-17T00:48:45.245Z,1009.66
2022-10-17T00:49:06.320Z,1009.64
2022-10-17T00:49:27.372Z,1009.62
2022-10-17T00:49:48.556Z,1009.64
2022-10-17T00:50:09.659Z,1009.66
2022-10-17T00:50:30.712Z,1009.64
2022-10-17T00:50:51.771Z,1009.64
2022-10-17T00:51:12.929Z,1009.62
2022-10-17T00:51:33.942Z,1009.62
2022-10-17T00:51:54.996Z,1009.64
2022-10-17T00:52:16.051Z,1009.66
2022-10-17T00:52:37.096Z,1009.64
2022-10-17T00:52:58.171Z,1009.66
2022-10-17T00:53:19.236Z,1009.66
2022-10-17T00:53:40.270Z,1009.62
2022-10-17T00:54:01.342Z,1009.58
2022-10-17T00:54:22.411Z,1009.58
2022-10-17T00:54:43.466Z,1009.62
2022-10-17T00:55:04.603Z,1009.58
2022-10-17T00:55:25.602Z,1009.60
2022-10-17T00:55:46.702Z,1009.60
2022-10-17T00:56:07.743Z,1009.62
2022-10-17T00:56:28.798Z,1009.62
2022-10-17T00:56:49.868Z,1009.60
2022-10-17T00:57:10.896Z,1009.62
2022-10-17T00:57:31.976Z,1009.64
2022-10-17T00:57:53.025Z,1009.64
2022-10-17T00:58:14.102Z,1009.66
2022-10-17T00:58:35.160Z,1009.64
2022-10-17T00:58:56.247Z,1009.64
2022-10-17T00:59:17.253Z,1009.62
2022-10-17T00:59:38.340Z,1009.62
2022-10-17T00:59:59.369Z,1009.62
2022-10-17T01:00:20.420Z,1009.64
2022-10-17T01:00:41.495Z,1009.66
2022-10-17T01:01:02.618Z,1009.68
2022-10-17T01:01:23.728Z,1009.70
2022-10-17T01:01:44.815Z,1009.68
2022-10-17T01:02:05.870Z,1009.68
2022-10-17T01:02:27.350Z,1009.66
2022-10-17T01:02:48.546Z,1009.68
2022-10-17T01:03:09.599Z,1009.68
2022-10-17T01:03:30.772Z,1009.72
2022-10-17T01:03:51.814Z,1009.70
2022-10-17T01:04:12.894Z,1009.70
2022-10-17T01:04:33.920Z,1009.66
2022-10-17T01:04:55.045Z,1009.70
2022-10-17T01:05:16.067Z,1009.74
2022-10-17T01:05:37.118Z,1009.70
2022-10-17T01:05:58.187Z,1009.70
2022-10-17T01:06:19.272Z,1009.74
2022-10-17T01:06:40.326Z,1009.74
2022-10-17T01:07:01.380Z,1009.68
2022-10-17T01:07:22.434Z,1009.70
2022-10-17T01:07:43.470Z,1009.70
2022-10-17T01:08:04.522Z,1009.72
2022-10-17T01:08:25.565Z,1009.72
2022-10-17T01:08:46.745Z,1009.72
2022-10-17T01:09:07.797Z,1009.72
2022-10-17T01:09:28.849Z,1009.70
2022-10-17T01:09:49.895Z,1009.74
2022-10-17T01:10:11.058Z,1009.72
2022-10-17T01:10:32.129Z,1009.74
2022-10-17T01:10:53.235Z,1009.76
2022-10-17T01:11:14.268Z,1009.76
2022-10-17T01:11:35.319Z,1009.78
2022-10-17T01:11:56.365Z,1009.78
2022-10-17T01:12:17.432Z,1009.78
2022-10-17T01:12:38.486Z,1009.80
2022-10-17T01:12:59.533Z,1009.80
2022-10-17T01:13:20.605Z,1009.80
2022-10-17T01:13:41.650Z,1009.82
2022-10-17T01:14:02.817Z,1009.78
2022-10-17T01:14:23.865Z,1009.80
2022-10-17T01:14:44.909Z,1009.80
2022-10-17T01:15:06.002Z,1009.80
2022-10-17T01:15:27.057Z,1009.78
2022-10-17T01:15:48.109Z,1009.80
2022-10-17T01:16:09.185Z,1009.82
2022-10-17T01:16:30.238Z,1009.82
2022-10-17T01:16:51.297Z,1009.78
2022-10-17T01:17:12.382Z,1009.80
2022-10-17T01:17:33.422Z,1009.80
2022-10-17T01:17:54.473Z,1009.82
2022-10-17T01:18:15.521Z,1009.78
2022-10-17T01:18:36.567Z,1009.82
2022-10-17T01:18:57.617Z,1009.80
2022-10-17T01:19:18.745Z,1009.82
2022-10-17T01:19:39.799Z,1009.82
2022-10-17T01:20:00.867Z,1009.84
2022-10-17T01:20:21.903Z,1009.84
2022-10-17T01:20:42.972Z,1009.84
2022-10-17T01:21:04.017Z,1009.86
2022-10-17T01:21:25.069Z,1009.88
2022-10-17T01:21:46.263Z,1009.88
2022-10-17T01:22:07.275Z,1009.88
2022-10-17T01:22:28.688Z,1009.90
2022-10-17T01:22:49.819Z,1009.86
2022-10-17T01:23:10.864Z,1009.86
2022-10-17T01:23:31.929Z,1009.90
2022-10-17T01:23:53.014Z,1009.88
2022-10-17T01:24:14.057Z,1009.90
2022-10-17T01:24:35.259Z,1009.84
2022-10-17T01:24:56.270Z,1009.86
2022-10-17T01:25:17.347Z,1009.88
2022-10-17T01:25:38.387Z,1009.88
2022-10-17T01:25:59.426Z,1009.90
2022-10-17T01:26:20.475Z,1009.90
2022-10-17T01:26:41.535Z,1009.88
2022-10-17T01:27:02.587Z,1009.88
2022-10-17T01:27:23.631Z,1009.91
2022-10-17T01:27:44.680Z,1009.90
2022-10-17T01:28:05.742Z,1009.91
2022-10-17T01:28:26.988Z,1009.91
2022-10-17T01:28:48.055Z,1009.91
2022-10-17T01:29:09.138Z,1009.91
2022-10-17T01:29:30.184Z,1009.91
2022-10-17T01:29:51.256Z,1009.90
2022-10-17T01:30:12.342Z,1009.88
2022-10-17T01:30:33.393Z,1009.90
2022-10-17T01:30:54.433Z,1009.84
2022-10-17T01:31:15.509Z,1009.86
2022-10-17T01:31:36.538Z,1009.82
2022-10-17T01:31:57.592Z,1009.80
2022-10-17T01:32:18.673Z,1009.78
2022-10-17T01:32:39.694Z,1009.78
2022-10-17T01:33:00.743Z,1009.80
2022-10-17T01:33:21.791Z,1009.82
2022-10-17T01:33:42.854Z,1009.78
2022-10-17T01:34:03.928Z,1009.74
2022-10-17T01:34:24.964Z,1009.76
2022-10-17T01:34:46.025Z,1009.76
2022-10-17T01:35:07.195Z,1009.76
2022-10-17T01:35:28.261Z,1009.76
2022-10-17T01:35:49.332Z,1009.76
2022-10-17T01:36:10.370Z,1009.78
2022-10-17T01:36:31.450Z,1009.76
2022-10-17T01:36:52.522Z,1009.76
2022-10-17T01:37:13.570Z,1009.76
2022-10-17T01:37:34.716Z,1009.78
2022-10-17T01:37:55.746Z,1009.78
2022-10-17T01:38:16.790Z,1009.76
2022-10-17T01:38:37.854Z,1009.74
2022-10-17T01:38:58.900Z,1009.76
2022-10-17T01:39:19.978Z,1009.76
2022-10-17T01:39:43.917Z,1009.74
2022-10-17T01:40:06.543Z,1009.76
2022-10-17T01:40:27.610Z,1009.76
2022-10-17T01:40:48.673Z,1009.76
2022-10-17T01:41:09.704Z,1009.76
2022-10-17T01:41:30.773Z,1009.74
2022-10-17T01:41:51.806Z,1009.74
2022-10-17T01:42:12.871Z,1009.70
2022-10-17T01:42:33.962Z,1009.74
2022-10-17T01:42:55.035Z,1009.76
2022-10-17T01:43:16.095Z,1009.74
2022-10-17T01:43:37.165Z,1009.70
2022-10-17T01:43:58.198Z,1009.70
2022-10-17T01:44:19.281Z,1009.74
2022-10-17T01:44:40.310Z,1009.72
2022-10-17T01:45:01.357Z,1009.74
2022-10-17T01:45:22.433Z,1009.74
2022-10-17T01:45:43.615Z,1009.72
2022-10-17T01:46:04.660Z,1009.74
2022-10-17T01:46:25.740Z,1009.76
2022-10-17T01:46:46.882Z,1009.74
2022-10-17T01:47:07.936Z,1009.76
2022-10-17T01:47:29.374Z,1009.74
2022-10-17T01:47:50.622Z,1009.76
2022-10-17T01:48:11.670Z,1009.76
2022-10-17T01:48:32.715Z,1009.78
2022-10-17T01:48:53.786Z,1009.76
2022-10-17T01:49:14.850Z,1009.78
2022-10-17T01:49:35.897Z,1009.74
2022-10-17T01:49:56.942Z,1009.78
2022-10-17T01:50:17.992Z,1009.78
2022-10-17T01:50:39.039Z,1009.78
2022-10-17T01:51:00.109Z,1009.78
2022-10-17T01:51:21.172Z,1009.78
2022-10-17T01:51:42.242Z,1009.74
2022-10-17T01:52:03.267Z,1009.76
2022-10-17T01:52:24.322Z,1009.76
2022-10-17T01:52:45.387Z,1009.78
2022-10-17T01:53:06.445Z,1009.78
2022-10-17T01:53:27.488Z,1009.76
2022-10-17T01:53:48.568Z,1009.78
2022-10-17T01:54:09.630Z,1009.78
2022-10-17T01:54:30.670Z,1009.76
2022-10-17T01:54:51.747Z,1009.74
2022-10-17T01:55:12.800Z,1009.76
2022-10-17T01:55:33.854Z,1009.76
2022-10-17T01:55:54.959Z,1009.74
2022-10-17T01:56:16.151Z,1009.72
2022-10-17T01:56:37.231Z,1009.72
2022-10-17T01:56:58.329Z,1009.70
2022-10-17T01:57:19.365Z,1009.68
2022-10-17T01:57:40.446Z,1009.68
2022-10-17T01:58:01.496Z,1009.70
2022-10-17T01:58:22.549Z,1009.66
2022-10-17T01:58:43.606Z,1009.68
2022-10-17T01:59:04.653Z,1009.68
2022-10-17T01:59:25.723Z,1009.66
2022-10-17T01:59:46.817Z,1009.68
2022-10-17T02:00:07.844Z,1009.68
2022-10-17T02:00:28.915Z,1009.68
2022-10-17T02:00:49.973Z,1009.66
2022-10-17T02:01:11.034Z,1009.68
2022-10-17T02:01:32.281Z,1009.66
2022-10-17T02:01:53.377Z,1009.68
2022-10-17T02:02:14.421Z,1009.66
2022-10-17T02:02:35.467Z,1009.70
2022-10-17T02:02:56.518Z,1009.68
2022-10-17T02:03:17.580Z,1009.68
2022-10-17T02:03:38.659Z,1009.70
2022-10-17T02:03:59.746Z,1009.68
2022-10-17T02:04:20.778Z,1009.68
2022-10-17T02:04:41.835Z,1009.68
2022-10-17T02:05:02.912Z,1009.68
2022-10-17T02:05:23.928Z,1009.68
2022-10-17T02:05:45.016Z,1009.68
2022-10-17T02:06:06.039Z,1009.70
2022-10-17T02:06:27.095Z,1009.70
2022-10-17T02:06:48.171Z,1009.66
2022-10-17T02:07:09.287Z,1009.66
2022-10-17T02:07:30.592Z,1009.68
2022-10-17T02:07:51.784Z,1009.66
2022-10-17T02:08:12.840Z,1009.68
2022-10-17T02:08:33.887Z,1009.66
2022-10-17T02:08:54.931Z,1009.66
2022-10-17T02:09:15.983Z,1009.60
2022-10-17T02:09:37.021Z,1009.68
2022-10-17T02:09:58.071Z,1009.68
2022-10-17T02:10:19.118Z,1009.68
2022-10-17T02:10:40.169Z,1009.68
2022-10-17T02:11:01.256Z,1009.68
2022-10-17T02:11:22.290Z,1009.62
2022-10-17T02:11:43.349Z,1009.64
2022-10-17T02:12:04.526Z,1009.62
2022-10-17T02:12:25.588Z,1009.60
2022-10-17T02:12:46.629Z,1009.60
2022-10-17T02:13:07.713Z,1009.58
2022-10-17T02:13:28.785Z,1009.60
2022-10-17T02:13:49.826Z,1009.58
2022-10-17T02:14:31.934Z,1009.62
2022-10-17T02:14:52.994Z,1009.64
2022-10-17T02:15:14.042Z,1009.62
2022-10-17T02:15:35.111Z,1009.64
2022-10-17T02:15:56.162Z,1009.66
2022-10-17T02:16:17.249Z,1009.64
2022-10-17T02:16:38.309Z,1009.64
2022-10-17T02:16:59.373Z,1009.64
2022-10-17T02:17:20.463Z,1009.64
2022-10-17T02:17:41.511Z,1009.66
2022-10-17T02:18:02.566Z,1009.66
2022-10-17T02:18:23.668Z,1009.62
2022-10-17T02:18:44.721Z,1009.62
2022-10-17T02:19:05.745Z,1009.66
2022-10-17T02:19:26.819Z,1009.62
2022-10-17T02:19:47.910Z,1009.64
2022-10-17T02:20:08.960Z,1009.64
2022-10-17T02:20:30.023Z,1009.66
2022-10-17T02:20:51.079Z,1009.66
2022-10-17T02:21:12.121Z,1009.62
2022-10-17T02:21:33.186Z,1009.64
2022-10-17T02:21:54.228Z,1009.64
2022-10-17T02:22:15.298Z,1009.64
2022-10-17T02:22:36.357Z,1009.66
2022-10-17T02:22:57.417Z,1009.68
2022-10-17T02:23:39.462Z,1009.66
2022-10-17T02:24:00.539Z,1009.64
2022-10-17T02:24:21.603Z,1009.64
2022-10-17T02:24:42.637Z,1009.64
2022-10-17T02:25:03.685Z,1009.66
2022-10-17T02:25:24.738Z,1009.68
2022-10-17T02:25:45.817Z,1009.66
2022-10-17T02:26:06.868Z,1009.66
2022-10-17T02:26:27.912Z,1009.68
2022-10-17T02:26:48.958Z,1009.66
2022-10-17T02:27:10.046Z,1009.64
2022-10-17T02:27:31.326Z,1009.66
2022-10-17T02:27:52.406Z,1009.66
2022-10-17T02:28:13.486Z,1009.66
2022-10-17T02:28:34.587Z,1009.66
2022-10-17T02:28:55.688Z,1009.64
2022-10-17T02:29:16.745Z,1009.64
2022-10-17T02:29:37.808Z,1009.66
2022-10-17T02:29:58.828Z,1009.66
2022-10-17T02:30:19.873Z,1009.66
2022-10-17T02:30:40.941Z,1009.68
2022-10-17T02:31:01.997Z,1009.70
2022-10-17T02:31:23.029Z,1009.68
2022-10-17T02:31:44.096Z,1009.70
2022-10-17T02:32:05.127Z,1009.68
2022-10-17T02:32:26.172Z,1009.68
2022-10-17T02:32:49.494Z,1009.68
2022-10-17T02:33:11.431Z,1009.70
2022-10-17T02:33:32.518Z,1009.70
2022-10-17T02:33:53.546Z,1009.72
2022-10-17T02:34:14.626Z,1009.72
2022-10-17T02:34:35.700Z,1009.70
2022-10-17T02:34:56.788Z,1009.68
2022-10-17T02:35:17.822Z,1009.70
2022-10-17T02:35:38.889Z,1009.70
2022-10-17T02:35:59.925Z,1009.70
2022-10-17T02:36:20.981Z,1009.72
2022-10-17T02:36:42.042Z,1009.74
2022-10-17T02:37:03.085Z,1009.72
2022-10-17T02:37:24.138Z,1009.70
2022-10-17T02:37:45.192Z,1009.72
2022-10-17T02:38:06.370Z,1009.76
2022-10-17T02:38:27.431Z,1009.74
2022-10-17T02:38:48.470Z,1009.72
2022-10-17T02:39:09.523Z,1009.72
2022-10-17T02:39:30.574Z,1009.74
2022-10-17T02:39:51.619Z,1009.74
2022-10-17T02:40:12.672Z,1009.74
2022-10-17T02:40:33.761Z,1009.76
2022-10-17T02:40:54.788Z,1009.74
2022-10-17T02:41:15.893Z,1009.74
2022-10-17T02:41:36.965Z,1009.76
2022-10-17T02:41:57.994Z,1009.76
2022-10-17T02:42:19.072Z,1009.76
2022-10-17T02:42:40.183Z,1009.74
2022-10-17T02:43:01.205Z,1009.76
2022-10-17T02:43:22.261Z,1009.76
2022-10-17T02:43:43.320Z,1009.76
2022-10-17T02:44:04.367Z,1009.76
2022-10-17T02:44:25.426Z,1009.76
2022-10-17T02:44:46.475Z,1009.76
2022-10-17T02:45:07.524Z,1009.76
2022-10-17T02:45:28.593Z,1009.76
2022-10-17T02:45:49.678Z,1009.76
2022-10-17T02:46:10.723Z,1009.76
2022-10-17T02:46:31.777Z,1009.76
2022-10-17T02:46:52.835Z,1009.76
2022-10-17T02:47:13.881Z,1009.76
2022-10-17T02:47:34.924Z,1009.78
2022-10-17T02:47:56.088Z,1009.76
2022-10-17T02:48:17.137Z,1009.72
2022-10-17T02:48:38.185Z,1009.74
2022-10-17T02:48:59.360Z,1009.74
2022-10-17T02:49:20.407Z,1009.74
2022-10-17T02:49:41.455Z,1009.76
2022-10-17T02:50:02.533Z,1009.76
2022-10-17T02:50:23.641Z,1009.76
2022-10-17T02:50:44.668Z,1009.76
2022-10-17T02:51:05.747Z,1009.78
2022-10-17T02:51:26.795Z,1009.78
2022-10-17T02:51:47.852Z,1009.78
2022-10-17T02:52:08.895Z,1009.76
2022-10-17T02:52:30.224Z,1009.76
2022-10-17T02:52:51.479Z,1009.78
2022-10-17T02:53:12.548Z,1009.76
2022-10-17T02:53:33.602Z,1009.78
2022-10-17T02:53:54.638Z,1009.78
2022-10-17T02:54:15.759Z,1009.78
2022-10-17T02:54:36.876Z,1009.80
2022-10-17T02:54:57.895Z,1009.80
2022-10-17T02:55:18.946Z,1009.80
2022-10-17T02:55:39.994Z,1009.82
2022-10-17T02:56:01.066Z,1009.80
2022-10-17T02:56:22.099Z,1009.80
2022-10-17T02:56:43.144Z,1009.82
2022-10-17T02:57:04.196Z,1009.84
2022-10-17T02:57:25.264Z,1009.84
2022-10-17T02:57:46.339Z,1009.84
2022-10-17T02:58:07.367Z,1009.84
2022-10-17T02:58:28.441Z,1009.84
2022-10-17T02:58:49.489Z,1009.84
2022-10-17T02:59:10.669Z,1009.84
2022-10-17T02:59:31.794Z,1009.84
2022-10-17T02:59:52.847Z,1009.88
2022-10-17T03:00:13.889Z,1009.86
2022-10-17T03:00:34.935Z,1009.88
2022-10-17T03:00:56.045Z,1009.90
2022-10-17T03:01:17.099Z,1009.93
2022-10-17T03:01:38.266Z,1009.93
2022-10-17T03:01:59.374Z,1009.93
2022-10-17T03:02:20.408Z,1009.93
2022-10-17T03:02:41.458Z,1009.91
2022-10-17T03:03:02.502Z,1009.93
2022-10-17T03:03:23.569Z,1009.91
2022-10-17T03:03:44.603Z,1009.93
2022-10-17T03:04:05.652Z,1009.95
2022-10-17T03:04:26.819Z,1009.97
2022-10-17T03:04:47.904Z,1009.99
2022-10-17T03:05:08.926Z,1010.01
2022-10-17T03:05:29.976Z,1009.95
2022-10-17T03:05:51.027Z,1009.93
2022-10-17T03:06:12.074Z,1009.91
2022-10-17T03:06:33.154Z,1009.88
2022-10-17T03:06:54.197Z,1009.90
2022-10-17T03:07:15.249Z,1009.91
2022-10-17T03:07:36.302Z,1009.91
2022-10-17T03:07:57.357Z,1009.93
2022-10-17T03:08:18.403Z,1009.95
2022-10-17T03:08:39.488Z,1009.95
2022-10-17T03:09:00.512Z,1009.93
2022-10-17T03:09:21.571Z,1009.93
2022-10-17T03:09:42.620Z,1009.95
2022-10-17T03:10:03.675Z,1009.95
2022-10-17T03:10:24.727Z,1009.95
2022-10-17T03:10:45.773Z,1009.91
2022-10-17T03:11:06.857Z,1009.91
2022-10-17T03:11:27.891Z,1009.93
2022-10-17T03:11:48.939Z,1009.91
2022-10-17T03:12:10.005Z,1009.95
2022-10-17T03:12:31.546Z,1009.99
2022-10-17T03:12:52.706Z,1009.99
2022-10-17T03:13:13.775Z,1009.99
2022-10-17T03:13:36.344Z,1009.99
2022-10-17T03:14:00.674Z,1009.99
2022-10-17T03:14:21.738Z,1009.97
2022-10-17T03:14:42.794Z,1009.97
2022-10-17T03:15:03.835Z,1009.95
2022-10-17T03:15:24.883Z,1009.99
2022-10-17T03:15:45.935Z,1009.97
2022-10-17T03:16:07.013Z,1009.97
2022-10-17T03:16:28.056Z,1009.97
2022-10-17T03:16:49.104Z,1009.97
2022-10-17T03:17:10.175Z,1009.99
2022-10-17T03:17:31.251Z,1010.01
2022-10-17T03:17:52.280Z,1009.99
2022-10-17T03:18:13.334Z,1009.97
2022-10-17T03:18:34.380Z,1009.95
2022-10-17T03:18:55.447Z,1009.99
2022-10-17T03:19:16.495Z,1010.01
2022-10-17T03:19:37.554Z,1010.03
2022-10-17T03:19:58.602Z,1010.03
2022-10-17T03:20:19.704Z,1010.01
2022-10-17T03:20:40.715Z,1010.03
2022-10-17T03:21:01.764Z,1010.03
2022-10-17T03:21:22.817Z,1010.03
2022-10-17T03:21:43.862Z,1010.01
2022-10-17T03:22:04.919Z,1010.01
2022-10-17T03:22:26.017Z,1010.03
2022-10-17T03:22:47.029Z,1009.99
2022-10-17T03:23:08.071Z,1010.01
2022-10-17T03:23:29.135Z,1010.01
2022-10-17T03:23:50.195Z,1010.03
2022-10-17T03:24:11.246Z,1010.03
2022-10-17T03:24:32.292Z,1010.03
2022-10-17T03:24:53.366Z,1010.03
2022-10-17T03:25:14.469Z,1010.03
2022-10-17T03:25:35.482Z,1010.05
2022-10-17T03:25:56.538Z,1010.03
2022-10-17T03:26:17.587Z,1010.01
2022-10-17T03:26:38.720Z,1010.01
2022-10-17T03:26:59.756Z,1010.01
2022-10-17T03:27:20.813Z,1010.05
2022-10-17T03:27:41.886Z,1010.01
2022-10-17T03:28:02.910Z,1010.01
2022-10-17T03:28:24.030Z,1010.05
2022-10-17T03:28:45.102Z,1010.01
2022-10-17T03:29:06.206Z,1009.99
2022-10-17T03:29:27.231Z,1010.01
2022-10-17T03:29:48.308Z,1010.01
2022-10-17T03:30:09.450Z,1010.03
2022-10-17T03:30:30.503Z,1010.03
2022-10-17T03:30:51.553Z,1010.01
2022-10-17T03:31:12.609Z,1010.01
2022-10-17T03:31:33.682Z,1010.03
2022-10-17T03:31:54.739Z,1009.99
2022-10-17T03:32:15.790Z,1010.03
2022-10-17T03:32:36.832Z,1009.99
2022-10-17T03:32:57.910Z,1010.03
2022-10-17T03:33:18.935Z,1010.05
2022-10-17T03:33:39.994Z,1010.05
2022-10-17T03:34:01.053Z,1010.03
2022-10-17T03:34:22.094Z,1010.03
2022-10-17T03:34:43.165Z,1010.05
2022-10-17T03:35:04.234Z,1010.07
2022-10-17T03:35:25.275Z,1010.05
2022-10-17T03:35:46.416Z,1010.07
2022-10-17T03:36:07.477Z,1010.09
2022-10-17T03:36:28.542Z,1010.09
2022-10-17T03:36:49.605Z,1010.09
2022-10-17T03:37:10.647Z,1010.05
2022-10-17T03:37:31.826Z,1010.13
2022-10-17T03:37:53.133Z,1010.11
2022-10-17T03:38:14.178Z,1010.11
2022-10-17T03:38:35.236Z,1010.11
2022-10-17T03:38:56.299Z,1010.13
2022-10-17T03:39:17.345Z,1010.15
2022-10-17T03:39:38.410Z,1010.13
2022-10-17T03:39:59.462Z,1010.11
2022-10-17T03:40:20.543Z,1010.13
2022-10-17T03:40:41.578Z,1010.15
2022-10-17T03:41:02.627Z,1010.13
2022-10-17T03:41:23.698Z,1010.15
2022-10-17T03:41:44.821Z,1010.15
2022-10-17T03:42:05.819Z,1010.15
2022-10-17T03:42:26.879Z,1010.13
2022-10-17T03:42:47.931Z,1010.17
2022-10-17T03:43:08.977Z,1010.11
2022-10-17T03:43:30.043Z,1010.13
2022-10-17T03:43:51.116Z,1010.13
2022-10-17T03:44:12.183Z,1010.15
2022-10-17T03:44:33.325Z,1010.17
2022-10-17T03:44:54.333Z,1010.13
2022-10-17T03:45:15.411Z,1010.15
2022-10-17T03:45:36.451Z,1010.15
2022-10-17T03:45:57.534Z,1010.13
2022-10-17T03:46:39.544Z,1010.17
2022-10-17T03:47:00.606Z,1010.17
2022-10-17T03:47:21.675Z,1010.15
2022-10-17T03:47:42.692Z,1010.15
2022-10-17T03:48:03.740Z,1010.13
2022-10-17T03:48:24.792Z,1010.19
2022-10-17T03:48:45.852Z,1010.19
2022-10-17T03:49:06.894Z,1010.17
2022-10-17T03:49:27.942Z,1010.19
2022-10-17T03:49:48.999Z,1010.19
2022-10-17T03:50:10.052Z,1010.19
2022-10-17T03:50:31.214Z,1010.21
2022-10-17T03:50:52.263Z,1010.21
2022-10-17T03:51:13.320Z,1010.21
2022-10-17T03:51:34.377Z,1010.23
2022-10-17T03:51:55.406Z,1010.17
2022-10-17T03:52:16.486Z,1010.23
2022-10-17T03:52:37.506Z,1010.25
2022-10-17T03:52:58.555Z,1010.25
2022-10-17T03:53:19.606Z,1010.19
2022-10-17T03:53:40.665Z,1010.19
2022-10-17T03:54:01.708Z,1010.19
2022-10-17T03:54:22.792Z,1010.23
2022-10-17T03:54:43.830Z,1010.23
2022-10-17T03:55:04.861Z,1010.19
2022-10-17T03:55:25.922Z,1010.15
2022-10-17T03:55:46.990Z,1010.13
2022-10-17T03:56:08.039Z,1010.17
2022-10-17T03:56:29.101Z,1010.19
2022-10-17T03:56:50.199Z,1010.19
2022-10-17T03:57:11.231Z,1010.17
2022-10-17T03:57:32.653Z,1010.17
2022-10-17T03:57:53.790Z,1010.19
2022-10-17T03:58:14.872Z,1010.17
2022-10-17T03:58:35.899Z,1010.17
2022-10-17T03:58:56.986Z,1010.19
2022-10-17T03:59:18.024Z,1010.21
2022-10-17T03:59:39.067Z,1010.21
2022-10-17T04:00:00.137Z,1010.21
2022-10-17T04:00:21.181Z,1010.23
2022-10-17T04:00:42.365Z,1010.21
2022-10-17T04:01:03.462Z,1010.23
2022-10-17T04:01:24.556Z,1010.23
2022-10-17T04:01:45.706Z,1010.25
2022-10-17T04:02:06.734Z,1010.27
2022-10-17T04:02:27.827Z,1010.27
2022-10-17T04:02:48.855Z,1010.27
2022-10-17T04:03:12.587Z,1010.31
2022-10-17T04:03:35.857Z,1010.33
2022-10-17T04:03:56.901Z,1010.31
2022-10-17T04:04:17.955Z,1010.31
2022-10-17T04:04:39.022Z,1010.31
2022-10-17T04:05:00.084Z,1010.33
2022-10-17T04:05:21.143Z,1010.33
2022-10-17T04:05:42.190Z,1010.35
2022-10-17T04:06:03.516Z,1010.33
2022-10-17T04:06:24.578Z,1010.35
2022-10-17T04:06:45.652Z,1010.33
2022-10-17T04:07:06.704Z,1010.35
2022-10-17T04:07:27.900Z,1010.37
2022-10-17T04:07:48.920Z,1010.35
2022-10-17T04:08:09.974Z,1010.37
2022-10-17T04:08:31.012Z,1010.38
2022-10-17T04:08:52.087Z,1010.38
2022-10-17T04:09:13.133Z,1010.38
2022-10-17T04:09:34.188Z,1010.42
2022-10-17T04:09:55.248Z,1010.44
2022-10-17T04:10:16.326Z,1010.42
2022-10-17T04:10:37.375Z,1010.40
2022-10-17T04:10:58.423Z,1010.40
2022-10-17T04:11:19.499Z,1010.42
2022-10-17T04:11:40.560Z,1010.44
2022-10-17T04:12:01.617Z,1010.44
2022-10-17T04:12:22.676Z,1010.53
2022-10-17T04:12:43.720Z,1010.53
2022-10-17T04:13:04.819Z,1010.44
2022-10-17T04:13:25.851Z,1010.42
2022-10-17T04:13:46.895Z,1010.44
2022-10-17T04:14:07.974Z,1010.44
2022-10-17T04:14:29.027Z,1010.53
2022-10-17T04:14:50.137Z,1010.53
2022-10-17T04:15:11.150Z,1010.53
2022-10-17T04:15:32.199Z,1010.53
2022-10-17T04:15:53.259Z,1010.55
2022-10-17T04:16:14.308Z,1010.53
2022-10-17T04:16:35.530Z,1010.44
2022-10-17T04:16:58.359Z,1010.42